PWSweather.com
Personal Weather Stations
Station Observations
MARRWS
Allansford VictoriaAU 3277

Allansford VictoriaAU 3277

Lat: -38.4003683814149, Lon: 142.569826841354

Elevation: 36

Station Type: Fine Offset X7062

http://home.vicnet.net.au/~marr/Weather/

Latest ConditionsUpdated 6:30:03 AM GMT+10:10 Saturday, Oct 25, 2014
Currently Today's Max Today's Min Today's Average
Temperature 56.1°F13.4°C 58.5°F14.7°C 54.9°F12.7°C 57.0°F13.9°C
Dew Point 54.1°F12.3°C 54.1°F12.3°C 51.6°F10.9°C 52.5°F11.4°C
Winds 0.3 mph ESE0.5 kmh ESE 3.2 mph S5.1 kmh S - 1.3 mph 2.1 kmh
Wind Gusts 2.2 mph3.5 kmh 9.2 mph14.8 kmh - -
Humidity 93% 93% 79% 85%
Pressure 29.77 in1008.1 mb 29.77 in1008.1 mb 29.72 in1006.4 mb -
Hour Temp Dew Point Humidity Winds Wind Gusts Pressure Precip Precip Rate Daily Precip Total
06:30 AM 56.1°F13.4°C 54.1°F12.3°C 93% 0.3 mph ESE0.5 kmh ESE 2.2 mph3.5 kmh 29.77 in1008.1 mb 0.00 in0.0 mm 0.00 in/hr0.0 mm/hr 0.00 in0.0 mm
06:20 AM 56.1°F13.4°C 54.1°F12.3°C 93% 0.4 mph E0.6 kmh E 2.2 mph3.5 kmh 29.77 in1008.1 mb 0.00 in0.0 mm 0.00 in/hr0.0 mm/hr 0.00 in0.0 mm
06:10 AM 55.6°F13.1°C 53.6°F12.0°C 93% 0.1 mph S0.2 kmh S 1.6 mph2.6 kmh 29.77 in1008.1 mb 0.00 in0.0 mm 0.00 in/hr0.0 mm/hr 0.00 in0.0 mm
06:00 AM 55.0°F12.8°C 52.8°F11.6°C 92% Calm Calm 0.7 mph1.1 kmh 29.77 in1008.1 mb 0.00 in0.0 mm 0.00 in/hr0.0 mm/hr 0.00 in0.0 mm
05:50 AM 54.9°F12.7°C 52.6°F11.4°C 92% Calm Calm 0.7 mph1.1 kmh 29.76 in1007.8 mb 0.00 in0.0 mm 0.00 in/hr0.0 mm/hr 0.00 in0.0 mm
05:40 AM 55.4°F13.0°C 53.1°F11.7°C 92% 0.4 mph N0.6 kmh N 1.6 mph2.6 kmh 29.76 in1007.8 mb 0.00 in0.0 mm 0.00 in/hr0.0 mm/hr 0.00 in0.0 mm
05:30 AM 55.6°F13.1°C 53.3°F11.8°C 92% Calm Calm 1.6 mph2.6 kmh 29.76 in1007.8 mb 0.00 in0.0 mm 0.00 in/hr0.0 mm/hr 0.00 in0.0 mm
05:20 AM 55.4°F13.0°C 53.1°F11.7°C 92% 0.6 mph SE1.0 kmh SE 2.2 mph3.5 kmh 29.75 in1007.5 mb 0.00 in0.0 mm 0.00 in/hr0.0 mm/hr 0.00 in0.0 mm
05:10 AM 55.2°F12.9°C 52.9°F11.6°C 92% 1.3 mph SE2.1 kmh SE 5.4 mph8.7 kmh 29.75 in1007.5 mb 0.00 in0.0 mm 0.00 in/hr0.0 mm/hr 0.00 in0.0 mm
05:00 AM 55.0°F12.8°C 52.5°F11.4°C 91% 0.9 mph S1.4 kmh S 3.1 mph5.0 kmh 29.75 in1007.5 mb 0.00 in0.0 mm 0.00 in/hr0.0 mm/hr 0.00 in0.0 mm
04:50 AM 54.9°F12.7°C 52.3°F11.3°C 91% 1.0 mph SSE1.6 kmh SSE 3.1 mph5.0 kmh 29.75 in1007.5 mb 0.00 in0.0 mm 0.00 in/hr0.0 mm/hr 0.00 in0.0 mm
04:40 AM 55.0°F12.8°C 52.2°F11.2°C 90% 1.8 mph SE2.9 kmh SE 4.5 mph7.2 kmh 29.74 in1007.1 mb 0.00 in0.0 mm 0.00 in/hr0.0 mm/hr 0.00 in0.0 mm
04:30 AM 55.2°F12.9°C 52.0°F11.1°C 89% 2.2 mph SE3.5 kmh SE 5.4 mph8.7 kmh 29.75 in1007.5 mb 0.00 in0.0 mm 0.00 in/hr0.0 mm/hr 0.00 in0.0 mm
04:20 AM 55.6°F13.1°C 52.1°F11.2°C 88% 2.8 mph SE4.5 kmh SE 6.9 mph11.1 kmh 29.74 in1007.1 mb 0.00 in0.0 mm 0.00 in/hr0.0 mm/hr 0.00 in0.0 mm
04:10 AM 56.1°F13.4°C 52.0°F11.1°C 86% 1.6 mph SE2.6 kmh SE 3.8 mph6.1 kmh 29.73 in1006.8 mb 0.00 in0.0 mm 0.00 in/hr0.0 mm/hr 0.00 in0.0 mm
04:00 AM 56.8°F13.8°C 52.4°F11.3°C 85% 1.8 mph SE2.9 kmh SE 6.0 mph9.7 kmh 29.74 in1007.1 mb 0.00 in0.0 mm 0.00 in/hr0.0 mm/hr 0.00 in0.0 mm
03:50 AM 57.6°F14.2°C 52.8°F11.6°C 84% 1.3 mph SSE2.1 kmh SSE 6.0 mph9.7 kmh 29.73 in1006.8 mb 0.00 in0.0 mm 0.00 in/hr0.0 mm/hr 0.00 in0.0 mm
03:40 AM 57.6°F14.2°C 52.4°F11.3°C 83% 1.7 mph SE2.7 kmh SE 4.5 mph7.2 kmh 29.73 in1006.8 mb 0.00 in0.0 mm 0.00 in/hr0.0 mm/hr 0.00 in0.0 mm
03:30 AM 57.7°F14.3°C 52.6°F11.4°C 83% 1.3 mph SE2.1 kmh SE 3.8 mph6.1 kmh 29.72 in1006.4 mb 0.00 in0.0 mm 0.00 in/hr0.0 mm/hr 0.00 in0.0 mm
03:20 AM 57.7°F14.3°C 52.6°F11.4°C 83% 2.0 mph SE3.2 kmh SE 4.5 mph7.2 kmh 29.72 in1006.4 mb 0.00 in0.0 mm 0.00 in/hr0.0 mm/hr 0.00 in0.0 mm
03:10 AM 57.9°F14.4°C 52.8°F11.6°C 83% 1.8 mph SE2.9 kmh SE 4.5 mph7.2 kmh 29.72 in1006.4 mb 0.00 in0.0 mm 0.00 in/hr0.0 mm/hr 0.00 in0.0 mm
03:00 AM 58.1°F14.5°C 52.6°F11.4°C 82% 1.6 mph SE2.6 kmh SE 4.5 mph7.2 kmh 29.72 in1006.4 mb 0.00 in0.0 mm 0.00 in/hr0.0 mm/hr 0.00 in0.0 mm
02:50 AM 58.1°F14.5°C 52.3°F11.3°C 81% 0.5 mph SSE0.8 kmh SSE 2.2 mph3.5 kmh 29.72 in1006.4 mb 0.00 in0.0 mm 0.00 in/hr0.0 mm/hr 0.00 in0.0 mm
02:40 AM 58.1°F14.5°C 52.3°F11.3°C 81% 0.4 mph SSW0.6 kmh SSW 2.2 mph3.5 kmh 29.72 in1006.4 mb 0.00 in0.0 mm 0.00 in/hr0.0 mm/hr 0.00 in0.0 mm
02:30 AM 58.3°F14.6°C 52.1°F11.2°C 80% 1.3 mph S2.1 kmh S 5.4 mph8.7 kmh 29.72 in1006.4 mb 0.00 in0.0 mm 0.00 in/hr0.0 mm/hr 0.00 in0.0 mm
02:20 AM 58.1°F14.5°C 52.0°F11.1°C 80% 1.6 mph SE2.6 kmh SE 3.8 mph6.1 kmh 29.72 in1006.4 mb 0.00 in0.0 mm 0.00 in/hr0.0 mm/hr 0.00 in0.0 mm
02:10 AM 58.1°F14.5°C 52.0°F11.1°C 80% 1.4 mph SSE2.3 kmh SSE 4.5 mph7.2 kmh 29.72 in1006.4 mb 0.00 in0.0 mm 0.00 in/hr0.0 mm/hr 0.00 in0.0 mm
02:00 AM 58.3°F14.6°C 52.1°F11.2°C 80% 2.2 mph SE3.5 kmh SE 6.0 mph9.7 kmh 29.72 in1006.4 mb 0.00 in0.0 mm 0.00 in/hr0.0 mm/hr 0.00 in0.0 mm
01:50 AM 58.3°F14.6°C 52.1°F11.2°C 80% 1.6 mph SE2.6 kmh SE 7.6 mph12.2 kmh 29.73 in1006.8 mb 0.00 in0.0 mm 0.00 in/hr0.0 mm/hr 0.00 in0.0 mm
01:40 AM 58.3°F14.6°C 52.1°F11.2°C 80% 1.8 mph SE2.9 kmh SE 4.5 mph7.2 kmh 29.72 in1006.4 mb 0.00 in0.0 mm 0.00 in/hr0.0 mm/hr 0.00 in0.0 mm
01:30 AM 58.5°F14.7°C 52.3°F11.3°C 80% 1.1 mph SSE1.8 kmh SSE 3.8 mph6.1 kmh 29.73 in1006.8 mb 0.00 in0.0 mm 0.00 in/hr0.0 mm/hr 0.00 in0.0 mm
01:20 AM 58.3°F14.6°C 52.1°F11.2°C 80% 0.5 mph SE0.8 kmh SE 3.1 mph5.0 kmh 29.73 in1006.8 mb 0.00 in0.0 mm 0.00 in/hr0.0 mm/hr 0.00 in0.0 mm
01:10 AM 58.3°F14.6°C 52.1°F11.2°C 80% 0.6 mph SSE1.0 kmh SSE 3.1 mph5.0 kmh 29.74 in1007.1 mb 0.00 in0.0 mm 0.00 in/hr0.0 mm/hr 0.00 in0.0 mm
01:00 AM 58.3°F14.6°C 51.8°F11.0°C 79% 1.0 mph SW1.6 kmh SW 3.8 mph6.1 kmh 29.74 in1007.1 mb 0.00 in0.0 mm 0.00 in/hr0.0 mm/hr 0.00 in0.0 mm
12:50 AM 58.1°F14.5°C 51.6°F10.9°C 79% 0.6 mph SSW1.0 kmh SSW 2.2 mph3.5 kmh 29.74 in1007.1 mb 0.00 in0.0 mm 0.00 in/hr0.0 mm/hr 0.00 in0.0 mm
12:40 AM 58.1°F14.5°C 51.6°F10.9°C 79% 0.8 mph SW1.3 kmh SW 3.8 mph6.1 kmh 29.74 in1007.1 mb 0.00 in0.0 mm 0.00 in/hr0.0 mm/hr 0.00 in0.0 mm
12:30 AM 57.9°F14.4°C 51.8°F11.0°C 80% 2.2 mph S3.5 kmh S 5.4 mph8.7 kmh 29.74 in1007.1 mb 0.00 in0.0 mm 0.00 in/hr0.0 mm/hr 0.00 in0.0 mm
12:20 AM 57.9°F14.4°C 52.5°F11.4°C 82% 3.2 mph S5.1 kmh S 9.2 mph14.8 kmh 29.74 in1007.1 mb 0.00 in0.0 mm 0.00 in/hr0.0 mm/hr 0.00 in0.0 mm
12:10 AM 57.6°F14.2°C 53.1°F11.7°C 85% 2.7 mph SSW4.3 kmh SSW 7.6 mph12.2 kmh 29.74 in1007.1 mb 0.00 in0.0 mm 0.00 in/hr0.0 mm/hr 0.00 in0.0 mm
12:00 AM 57.0°F13.9°C 54.1°F12.3°C 90% 2.0 mph SSW3.2 kmh SSW 6.0 mph9.7 kmh 29.75 in1007.5 mb 0.00 in0.0 mm 0.00 in/hr0.0 mm/hr 0.00 in0.0 mm